KSLB

Details ICAO KSLB
Name STORM LAKE MUNI
Region United States
Timezone America/Chicago (UTC-6.0)
Plans Departing 1
Arriving 1
Stats Elevation 1,488 ft / 454 m (AMSL)
Location 42.598095° -95.240575°
Runways 3
Magnetic Variation 1.969° E
Sunrise 2017-12-14 13:44:50 UTC / 2017-12-14 07:44:50 Local
Sunset 2017-12-14 22:49:30 UTC / 2017-12-14 16:49:30 Local
Advertisement - Login to hide

Runways

ID Width Length Bearing (true) Bearing (mag) Surface Threshold Offset Overrun Length
06 90 ft / 27 m 1,850 ft / 564 m 66.50° 64.53° Grass 0 ft / 0 m 0 ft / 0 m
13 50 ft / 15 m 3,032 ft / 924 m 134.18° 132.21° Concrete 172 ft / 52 m 300 ft / 91 m
17 75 ft / 23 m 5,008 ft / 1,526 m 174.93° 172.96° Concrete 0 ft / 0 m 0 ft / 0 m
24 90 ft / 27 m 1,850 ft / 564 m 246.50° 244.53° Grass 0 ft / 0 m 0 ft / 0 m
31 50 ft / 15 m 3,032 ft / 924 m 314.19° 312.22° Concrete 0 ft / 0 m 100 ft / 30 m
35 75 ft / 23 m 5,008 ft / 1,526 m 354.93° 352.96° Concrete 0 ft / 0 m 0 ft / 0 m

Map

Weather


0- 5 10 15 20 25 30 35+ Temperature / ° C

Clouds and Precipitation
Forecast for 2017-12-14 12:00 UTC. Updated an hour ago

Ground ~20,000 ft ~40,000 ft Winds

METAR

KSLB 140755Z AUTO 36010G16KT 10SM OVC016 M04/M06 A2998 RMK AO2

TAF

Not found

Frequencies

Recorded 118.52 MHz AWOS 3
Unicom 122.70 MHz CTAF/UNICOM
Warning: Do not use this data for real-world aviation or navigation. No guarantee of current accuracy is given.